Time;durP1;ratioP1;P1;durP2;ratioP2;P2;SDS_P1;SDS_P2;PMS_P1;PMS_P2;Temp;Humidity;BMP_temperature;BMP_pressure;BME280_temperature;BME280_humidity;BME280_pressure;Samples;Min_cycle;Max_cycle;Signal;HPM_P1;HPM_P2
2023/01/22 00:02:21;;;;;;;11.8;7.8;;;;;;;;;;;;;
2023/01/22 00:04:47;;;;;;;12.6;7.9;;;;;;;;;;;;;
2023/01/22 00:07:14;;;;;;;12.7;7.7;;;;;;;;;;;;;
2023/01/22 00:09:38;;;;;;;13.6;8.2;;;;;;;;;;;;;
2023/01/22 00:12:03;;;;;;;11.5;7.3;;;;;;;;;;;;;
2023/01/22 00:14:39;;;;;;;12.3;7.5;;;;;;;;;;;;;
2023/01/22 00:17:03;;;;;;;13.7;8;;;;;;;;;;;;;
2023/01/22 00:19:28;;;;;;;13.7;8;;;;;;;;;;;;;
2023/01/22 00:21:53;;;;;;;11.5;7.8;;;;;;;;;;;;;
2023/01/22 00:24:25;;;;;;;13.4;7.8;;;;;;;;;;;;;
2023/01/22 00:26:53;;;;;;;13.7;8.3;;;;;;;;;;;;;
2023/01/22 00:29:18;;;;;;;14.1;7.9;;;;;;;;;;;;;
2023/01/22 00:31:48;;;;;;;11.8;7.3;;;;;;;;;;;;;
2023/01/22 00:34:14;;;;;;;12.5;7.8;;;;;;;;;;;;;
2023/01/22 00:36:39;;;;;;;14.1;8.5;;;;;;;;;;;;;
2023/01/22 00:39:05;;;;;;;13.6;8.5;;;;;;;;;;;;;
2023/01/22 00:41:31;;;;;;;13.5;8.2;;;;;;;;;;;;;
2023/01/22 00:43:57;;;;;;;12.2;8.3;;;;;;;;;;;;;
2023/01/22 00:46:22;;;;;;;12.7;8.4;;;;;;;;;;;;;
2023/01/22 00:48:49;;;;;;;15.6;8.4;;;;;;;;;;;;;
2023/01/22 00:51:14;;;;;;;12;7.7;;;;;;;;;;;;;
2023/01/22 00:53:42;;;;;;;12.1;7.7;;;;;;;;;;;;;
2023/01/22 00:56:05;;;;;;;13;8.1;;;;;;;;;;;;;
2023/01/22 00:58:31;;;;;;;12.8;8.4;;;;;;;;;;;;;
2023/01/22 01:00:57;;;;;;;12.7;8;;;;;;;;;;;;;
2023/01/22 01:03:31;;;;;;;11.6;8.1;;;;;;;;;;;;;
2023/01/22 01:05:49;;;;;;;11.6;7.7;;;;;;;;;;;;;
2023/01/22 01:08:14;;;;;;;12.8;7.8;;;;;;;;;;;;;
2023/01/22 01:10:40;;;;;;;13.7;8.3;;;;;;;;;;;;;
2023/01/22 01:13:05;;;;;;;11.1;7.4;;;;;;;;;;;;;
2023/01/22 01:15:31;;;;;;;11.2;7.4;;;;;;;;;;;;;
2023/01/22 01:17:56;;;;;;;12.1;7.3;;;;;;;;;;;;;
2023/01/22 01:20:23;;;;;;;12;7.7;;;;;;;;;;;;;
2023/01/22 01:22:48;;;;;;;11.5;7.3;;;;;;;;;;;;;
2023/01/22 01:25:13;;;;;;;11.3;7.7;;;;;;;;;;;;;
2023/01/22 01:27:38;;;;;;;11.8;7.5;;;;;;;;;;;;;
2023/01/22 01:30:03;;;;;;;11.6;7.4;;;;;;;;;;;;;
2023/01/22 01:32:29;;;;;;;12.1;7.9;;;;;;;;;;;;;
2023/01/22 01:34:55;;;;;;;13.5;7.9;;;;;;;;;;;;;
2023/01/22 01:37:21;;;;;;;12.6;7.6;;;;;;;;;;;;;
2023/01/22 01:39:50;;;;;;;10.9;7.3;;;;;;;;;;;;;
2023/01/22 01:42:11;;;;;;;10.4;7.3;;;;;;;;;;;;;
2023/01/22 01:44:39;;;;;;;11.7;7.5;;;;;;;;;;;;;
2023/01/22 01:47:04;;;;;;;11.2;7.6;;;;;;;;;;;;;
2023/01/22 01:49:29;;;;;;;11.7;7.5;;;;;;;;;;;;;
2023/01/22 01:51:54;;;;;;;13.1;8.1;;;;;;;;;;;;;
2023/01/22 01:54:19;;;;;;;14.3;8.6;;;;;;;;;;;;;
2023/01/22 01:56:45;;;;;;;12.6;8.3;;;;;;;;;;;;;
2023/01/22 01:59:10;;;;;;;13.2;8.5;;;;;;;;;;;;;
2023/01/22 02:01:37;;;;;;;12.1;8.2;;;;;;;;;;;;;
2023/01/22 02:04:02;;;;;;;12.6;8.4;;;;;;;;;;;;;
2023/01/22 02:06:27;;;;;;;11.7;7.8;;;;;;;;;;;;;
2023/01/22 02:08:52;;;;;;;11.7;7.8;;;;;;;;;;;;;
2023/01/22 02:11:17;;;;;;;10.8;7.3;;;;;;;;;;;;;
2023/01/22 02:13:46;;;;;;;12.4;7.8;;;;;;;;;;;;;
2023/01/22 02:16:11;;;;;;;13.9;8.1;;;;;;;;;;;;;
2023/01/22 02:18:37;;;;;;;13;8.3;;;;;;;;;;;;;
2023/01/22 02:21:02;;;;;;;14;8.6;;;;;;;;;;;;;
2023/01/22 02:23:27;;;;;;;13.2;8.4;;;;;;;;;;;;;
2023/01/22 02:25:52;;;;;;;12.8;8.1;;;;;;;;;;;;;
2023/01/22 02:28:19;;;;;;;12;8;;;;;;;;;;;;;
2023/01/22 02:30:44;;;;;;;13.7;8.4;;;;;;;;;;;;;
2023/01/22 02:33:10;;;;;;;13.7;8.7;;;;;;;;;;;;;
2023/01/22 02:35:35;;;;;;;13.3;8.1;;;;;;;;;;;;;
2023/01/22 02:38:00;;;;;;;12.5;8.5;;;;;;;;;;;;;
2023/01/22 02:40:25;;;;;;;11.6;7.6;;;;;;;;;;;;;
2023/01/22 02:42:52;;;;;;;10.8;7.2;;;;;;;;;;;;;
2023/01/22 02:45:17;;;;;;;12;8.3;;;;;;;;;;;;;
2023/01/22 02:47:43;;;;;;;12.4;8.1;;;;;;;;;;;;;
2023/01/22 02:50:08;;;;;;;14.9;8.5;;;;;;;;;;;;;
2023/01/22 02:52:34;;;;;;;13.5;8.7;;;;;;;;;;;;;
2023/01/22 02:54:59;;;;;;;14.2;9.1;;;;;;;;;;;;;
2023/01/22 02:57:25;;;;;;;14.9;9;;;;;;;;;;;;;
2023/01/22 02:59:50;;;;;;;13.9;9;;;;;;;;;;;;;
2023/01/22 03:02:17;;;;;;;14.1;9.3;;;;;;;;;;;;;
2023/01/22 03:04:42;;;;;;;15.9;10;;;;;;;;;;;;;
2023/01/22 03:07:08;;;;;;;15.4;9.5;;;;;;;;;;;;;
2023/01/22 03:09:33;;;;;;;14.4;9.6;;;;;;;;;;;;;
2023/01/22 03:11:58;;;;;;;17.5;10.5;;;;;;;;;;;;;
2023/01/22 03:21:42;;;;;;;17;10.7;;;;;;;;;;;;;
2023/01/22 03:24:04;;;;;;;17.1;10.6;;;;;;;;;;;;;
2023/01/22 03:26:30;;;;;;;17.2;10.9;;;;;;;;;;;;;
2023/01/22 03:28:54;;;;;;;18;10.9;;;;;;;;;;;;;
2023/01/22 03:31:21;;;;;;;17.9;10.7;;;;;;;;;;;;;
2023/01/22 03:33:46;;;;;;;16;9.5;;;;;;;;;;;;;
2023/01/22 03:36:12;;;;;;;15.8;9.5;;;;;;;;;;;;;
2023/01/22 03:38:36;;;;;;;14.9;9.6;;;;;;;;;;;;;
2023/01/22 03:41:04;;;;;;;15.9;10;;;;;;;;;;;;;
2023/01/22 03:43:28;;;;;;;15.2;10;;;;;;;;;;;;;
2023/01/22 03:45:55;;;;;;;17.9;11;;;;;;;;;;;;;
2023/01/22 03:48:20;;;;;;;14.4;9.4;;;;;;;;;;;;;
2023/01/22 03:50:45;;;;;;;16;9.6;;;;;;;;;;;;;
2023/01/22 03:53:10;;;;;;;14;9;;;;;;;;;;;;;
2023/01/22 03:55:39;;;;;;;14.3;9.5;;;;;;;;;;;;;
2023/01/22 03:58:04;;;;;;;14.4;9.4;;;;;;;;;;;;;
2023/01/22 04:02:31;;;;;;;14.4;9.4;;;;;;;-1.15;86.48535;940.5119;;;;
2023/01/22 04:04:56;;;;;;;14.8;9;;;;;;;-1.16;86.4043;940.4428;;;;
2023/01/22 04:07:21;;;;;;;14.3;9;;;;;;;-1.24;86.37793;940.4448;;;;
2023/01/22 04:09:52;;;;;;;15.5;9;;;;;;;-1.26;86.59473;940.5418;;;;
2023/01/22 04:12:18;;;;;;;15;9.2;;;;;;;-1.18;86.67871;940.5336;;;;
2023/01/22 04:14:47;;;;;;;14.1;9.2;;;;;;;-1.14;86.51953;940.5668;;;;
2023/01/22 04:17:13;;;;;;;15;9.9;;;;;;;-1.08;86.32129;940.5568;;;;
2023/01/22 04:19:43;;;;;;;16.2;10.4;;;;;;;-1.28;86.35645;940.5818;;;;
2023/01/22 04:22:15;;;;;;;16.3;10.1;;;;;;;-1.23;86.57813;940.6185;;;;
2023/01/22 04:24:44;;;;;;;18.9;11.4;;;;;;;-1.21;86.43945;940.611;;;;
2023/01/22 04:27:09;;;;;;;16.8;10.6;;;;;;;-1.21;86.37305;940.5922;;;;
2023/01/22 04:29:37;;;;;;;17.3;10.8;;;;;;;-1.14;86.33203;940.6186;;;;
2023/01/22 04:32:03;;;;;;;17.4;10.9;;;;;;;-1.03;86.08594;940.615;;;;
2023/01/22 04:34:31;;;;;;;17;11;;;;;;;-1.04;85.8418;940.6178;;;;
2023/01/22 04:36:57;;;;;;;17.6;11.5;;;;;;;-1.11;85.49316;940.6016;;;;
2023/01/22 04:39:26;;;;;;;17.6;11.5;;;;;;;-1.33;86.64648;940.5762;;;;
2023/01/22 04:41:51;;;;;;;18.5;11.5;;;;;;;-1.33;86.64648;940.5955;;;;
2023/01/22 04:44:22;;;;;;;19.3;11.6;;;;;;;-1.38;86.85742;940.5717;;;;
2023/01/22 04:46:50;;;;;;;18.7;11;;;;;;;-1.51;87.28613;940.5859;;;;
2023/01/22 04:49:15;;;;;;;19.1;11.9;;;;;;;-1.52;87.375;940.6235;;;;
2023/01/22 04:51:45;;;;;;;19.3;12;;;;;;;-1.49;87.29004;940.6384;;;;
2023/01/22 04:54:10;;;;;;;19.1;11.7;;;;;;;-1.45;87.03516;940.5817;;;;
2023/01/22 04:56:35;;;;;;;18.8;11.1;;;;;;;-1.43;86.92383;940.6456;;;;
2023/01/22 04:59:06;;;;;;;19.5;11.5;;;;;;;-1.41;86.80762;940.6619;;;;
2023/01/22 05:01:31;;;;;;;18.6;11.3;;;;;;;-1.39;86.90234;940.6733;;;;
2023/01/22 05:03:57;;;;;;;18.4;11.1;;;;;;;-1.36;86.68555;940.6866;;;;
2023/01/22 05:06:22;;;;;;;18.3;11.4;;;;;;;-1.34;86.53418;940.6816;;;;
2023/01/22 05:08:51;;;;;;;20.2;12.2;;;;;;;-1.51;87.14258;940.7335;;;;
2023/01/22 05:11:16;;;;;;;20.5;12.4;;;;;;;-1.56;87.50879;940.7539;;;;
2023/01/22 05:13:46;;;;;;;20.1;11.9;;;;;;;-1.46;87.21973;940.7935;;;;
2023/01/22 05:16:11;;;;;;;19.9;12.1;;;;;;;-1.41;86.54297;940.787;;;;
2023/01/22 05:19:48;;;;;;;18;11.3;;;;;;;-1.36;86.23047;940.8431;;;;
2023/01/22 05:22:17;;;;;;;17.1;9.9;;;;;;;-1.36;85.44238;940.875;;;;
2023/01/22 05:24:42;;;;;;;16.3;10;;;;;;;-1.4;85.31055;940.8536;;;;
2023/01/22 05:27:11;;;;;;;18.2;10.9;;;;;;;-1.47;85.6748;940.88;;;;
2023/01/22 05:29:36;;;;;;;19.7;11.8;;;;;;;-1.44;85.98047;940.8166;;;;
2023/01/22 05:32:07;;;;;;;19.2;11.4;;;;;;;-1.47;86.05273;940.8388;;;;
2023/01/22 05:34:36;;;;;;;21.3;12;;;;;;;-1.42;85.92871;940.9642;;;;
2023/01/22 05:37:01;;;;;;;18.4;12;;;;;;;-1.48;85.61816;941.0084;;;;
2023/01/22 05:39:26;;;;;;;17.9;11.7;;;;;;;-1.84;85.57617;941.0419;;;;
2023/01/22 05:41:57;;;;;;;19.3;11.5;;;;;;;-1.81;85.66992;941.0475;;;;
2023/01/22 05:44:26;;;;;;;18.2;11.1;;;;;;;-1.84;86.27637;941.09;;;;
2023/01/22 05:46:51;;;;;;;16.9;10.6;;;;;;;-1.8;86.1084;941.0955;;;;
2023/01/22 05:49:19;;;;;;;17.3;10.3;;;;;;;-1.82;86.10254;941.1136;;;;
2023/01/22 05:51:44;;;;;;;16.6;10.8;;;;;;;-1.79;86.24121;941.0789;;;;
2023/01/22 05:54:10;;;;;;;17.6;10.7;;;;;;;-1.72;86.17871;941.1122;;;;
2023/01/22 05:56:35;;;;;;;18.9;11.3;;;;;;;-1.88;86.79004;941.228;;;;
2023/01/22 05:59:03;;;;;;;16.4;10.1;;;;;;;-1.87;87.32227;941.2658;;;;
2023/01/22 06:01:28;;;;;;;20;11.3;;;;;;;-1.92;87.30176;941.2324;;;;
2023/01/22 06:03:58;;;;;;;15.6;9.9;;;;;;;-2.01;87.6709;941.3336;;;;
2023/01/22 06:06:27;;;;;;;18.2;10.5;;;;;;;-2;87.9502;941.2933;;;;
2023/01/22 06:08:53;;;;;;;17.3;10.5;;;;;;;-2.07;87.56934;941.2534;;;;
2023/01/22 06:11:22;;;;;;;16.3;10.3;;;;;;;-2.06;87.30566;941.2484;;;;
2023/01/22 06:13:47;;;;;;;17.3;10.3;;;;;;;-1.99;87.10938;941.1937;;;;
2023/01/22 06:16:17;;;;;;;15.5;10.3;;;;;;;-1.91;86.78125;941.1672;;;;
2023/01/22 06:18:46;;;;;;;15.8;9.7;;;;;;;-1.97;86.8252;941.2131;;;;
2023/01/22 06:21:11;;;;;;;15.8;9.8;;;;;;;-2.04;87.2334;941.3256;;;;
2023/01/22 06:23:40;;;;;;;16.2;10;;;;;;;-2.01;87.49414;941.3093;;;;
2023/01/22 06:26:05;;;;;;;15.8;9.5;;;;;;;-2.05;86.95215;941.3109;;;;
2023/01/22 06:28:35;;;;;;;17;10;;;;;;;-2.22;86.54199;941.2957;;;;
2023/01/22 06:31:04;;;;;;;15.7;9.9;;;;;;;-2.21;86.51074;941.3353;;;;
2023/01/22 06:33:25;;;;;;;17.7;10.7;;;;;;;-2.31;86.87793;941.2881;;;;
2023/01/22 06:35:53;;;;;;;17.9;10.1;;;;;;;-2.34;87.18066;941.4011;;;;
2023/01/22 06:38:18;;;;;;;17;10.5;;;;;;;-2.23;86.93945;941.4324;;;;
2023/01/22 06:40:46;;;;;;;17.4;10.7;;;;;;;-2.14;86.66797;941.4582;;;;
2023/01/22 06:43:18;;;;;;;17.4;10.4;;;;;;;-2.23;86.69531;941.4913;;;;
2023/01/22 06:45:47;;;;;;;17.8;10.8;;;;;;;-2.34;87.5459;941.4984;;;;
2023/01/22 06:48:12;;;;;;;17.1;10.6;;;;;;;-2.35;87.81055;941.5056;;;;
2023/01/22 06:50:42;;;;;;;17.5;10.4;;;;;;;-2.32;87.89551;941.5639;;;;
2023/01/22 06:53:07;;;;;;;18.6;10;;;;;;;-2.45;88.26758;941.5478;;;;
2023/01/22 06:55:36;;;;;;;15.6;9.4;;;;;;;-2.26;87.81836;941.5492;;;;
2023/01/22 06:58:01;;;;;;;15.3;9.4;;;;;;;-2.32;87.50781;941.5851;;;;
2023/01/22 07:00:29;;;;;;;21.7;12.5;;;;;;;-2.24;87.4248;941.5611;;;;
2023/01/22 07:02:54;;;;;;;20;11.4;;;;;;;-2.15;86.87598;941.6626;;;;
2023/01/22 07:05:20;;;;;;;28.8;15.4;;;;;;;-2.09;86.5127;941.637;;;;
2023/01/22 07:07:49;;;;;;;17.4;10.5;;;;;;;-2.02;86.2832;941.6102;;;;
2023/01/22 07:10:18;;;;;;;19.1;10;;;;;;;-2.11;85.93262;941.5801;;;;
2023/01/22 07:12:43;;;;;;;14.2;8.8;;;;;;;-2.32;86.09863;941.6197;;;;
2023/01/22 07:15:12;;;;;;;16;9.1;;;;;;;-2.31;86.81152;941.6125;;;;
2023/01/22 07:17:37;;;;;;;18.2;8.8;;;;;;;-2.36;87.05469;941.6275;;;;
2023/01/22 07:20:02;;;;;;;12.6;7.9;;;;;;;-2.43;87.04004;941.7266;;;;
2023/01/22 07:22:29;;;;;;;14.2;9;;;;;;;-2.36;87.21191;941.7058;;;;
2023/01/22 07:24:54;;;;;;;14.2;8.9;;;;;;;-2.25;87.25488;941.7243;;;;
2023/01/22 07:27:23;;;;;;;16.3;9.7;;;;;;;-2.26;87.09961;941.7211;;;;
2023/01/22 07:29:48;;;;;;;15.7;9.8;;;;;;;-2.45;86.95898;941.6947;;;;
2023/01/22 07:32:16;;;;;;;20.8;11.5;;;;;;;-2.46;87.35547;941.7419;;;;
2023/01/22 07:34:41;;;;;;;19.1;11.2;;;;;;;-2.37;87.16406;941.7089;;;;
2023/01/22 07:37:09;;;;;;;17.3;11.2;;;;;;;-2.26;87.62988;941.7062;;;;
2023/01/22 07:39:34;;;;;;;16.8;10.2;;;;;;;-2.17;87.69434;941.6594;;;;
2023/01/22 07:42:00;;;;;;;18.9;11.3;;;;;;;-2.03;87.77832;941.7031;;;;
2023/01/22 07:44:26;;;;;;;19.6;12.1;;;;;;;-1.97;87.37988;941.666;;;;
2023/01/22 07:46:53;;;;;;;17;10.3;;;;;;;-2.05;87.34082;941.5945;;;;
2023/01/22 07:49:18;;;;;;;15.8;9.8;;;;;;;-2;87.34082;941.7097;;;;
2023/01/22 07:51:46;;;;;;;18.2;12.1;;;;;;;-1.88;87.2207;941.7006;;;;
2023/01/22 07:54:11;;;;;;;19.7;12.6;;;;;;;-1.66;86.85742;941.7628;;;;
2023/01/22 07:56:36;;;;;;;21;13.1;;;;;;;-1.49;86.59082;941.7491;;;;
2023/01/22 07:59:01;;;;;;;21.7;13.4;;;;;;;-1.4;85.40137;941.8756;;;;
2023/01/22 08:01:29;;;;;;;19.5;12.2;;;;;;;-1.19;85.29883;941.8195;;;;
2023/01/22 08:03:56;;;;;;;21.1;13.5;;;;;;;-1.04;84.91895;941.7689;;;;
2023/01/22 08:06:23;;;;;;;18.1;12;;;;;;;-0.83;84.43848;941.8625;;;;
2023/01/22 08:08:49;;;;;;;19.9;11.8;;;;;;;-0.85;83.44531;941.8702;;;;
2023/01/22 08:11:16;;;;;;;20.1;12;;;;;;;-0.9;83.19922;941.9347;;;;
2023/01/22 08:13:41;;;;;;;15.4;10.7;;;;;;;-0.96;83.7793;941.9474;;;;
2023/01/22 08:16:09;;;;;;;15.7;10.4;;;;;;;-0.79;83.14453;941.9931;;;;
2023/01/22 08:18:33;;;;;;;15.4;9.9;;;;;;;-0.48;82.51758;941.9674;;;;
2023/01/22 08:21:01;;;;;;;16.2;10.4;;;;;;;-0.32;81.71289;942.0284;;;;
2023/01/22 08:23:26;;;;;;;13.6;9;;;;;;;-0.27;79.2627;942.0217;;;;
2023/01/22 08:25:51;;;;;;;14.9;9.4;;;;;;;-0.05;78.23438;942.0427;;;;
2023/01/22 08:28:16;;;;;;;16.7;10.6;;;;;;;0.09;77.89355;942.1322;;;;
2023/01/22 08:30:44;;;;;;;15.9;10.1;;;;;;;0.5;77.60059;942.17;;;;
2023/01/22 08:33:14;;;;;;;15;9.9;;;;;;;0.67;77.375;942.1379;;;;
2023/01/22 08:35:41;;;;;;;13;8.6;;;;;;;0.98;75.33203;942.152;;;;
2023/01/22 08:38:06;;;;;;;15.3;9.9;;;;;;;1.32;74.56641;942.1949;;;;
2023/01/22 08:40:31;;;;;;;14.5;9.7;;;;;;;1.94;72.29297;941.9692;;;;
2023/01/22 08:43:00;;;;;;;13.4;9.1;;;;;;;1.91;70.1377;941.9928;;;;
2023/01/22 08:45:30;;;;;;;14.9;9.8;;;;;;;2.32;69.06445;942.0206;;;;
2023/01/22 08:47:55;;;;;;;14.5;9.8;;;;;;;2.49;67.48828;942.0345;;;;
2023/01/22 08:50:22;;;;;;;15.4;10.2;;;;;;;3.32;66.2168;941.9842;;;;
2023/01/22 08:52:48;;;;;;;14.1;9.9;;;;;;;4.17;63.00781;942.0294;;;;
2023/01/22 08:55:13;;;;;;;14.2;9.9;;;;;;;5.09;59.86328;941.963;;;;
2023/01/22 08:57:40;;;;;;;15.6;10.1;;;;;;;5.56;57.78613;941.8376;;;;
2023/01/22 09:00:05;;;;;;;15.5;10.7;;;;;;;6;56.01465;941.9398;;;;
2023/01/22 09:02:37;;;;;;;15.1;10.3;;;;;;;6.37;55.59863;941.9434;;;;
2023/01/22 09:05:10;;;;;;;14.6;10.7;;;;;;;6.28;53.54199;941.9131;;;;
2023/01/22 09:07:40;;;;;;;15.6;11.2;;;;;;;5.86;55.12598;941.9144;;;;
2023/01/22 09:10:13;;;;;;;16.1;11.2;;;;;;;5.42;56.56934;941.8745;;;;
2023/01/22 09:12:43;;;;;;;16.6;11.5;;;;;;;5.15;57.12109;941.9073;;;;
2023/01/22 09:15:13;;;;;;;16.9;11.3;;;;;;;4.79;57.38867;941.8853;;;;
2023/01/22 09:17:40;;;;;;;14.7;10.9;;;;;;;3.64;61.25488;941.9673;;;;
2023/01/22 09:20:05;;;;;;;15.9;11.3;;;;;;;3.13;63.21387;941.9734;;;;
2023/01/22 09:22:34;;;;;;;15.5;11.5;;;;;;;2.98;63.76465;941.9919;;;;
2023/01/22 09:25:05;;;;;;;16.9;12.5;;;;;;;2.92;64.55176;942.0735;;;;
2023/01/22 09:27:34;;;;;;;17.1;11.7;;;;;;;2.77;64.39355;942.0489;;;;
2023/01/22 09:30:00;;;;;;;16;11.5;;;;;;;2.77;64.88672;942.1027;;;;
2023/01/22 09:32:28;;;;;;;15.1;10.8;;;;;;;2.71;65.08984;942.1085;;;;
2023/01/22 09:34:54;;;;;;;14.9;9.6;;;;;;;2.41;65.76172;942.1772;;;;
2023/01/22 09:37:24;;;;;;;13.8;9.2;;;;;;;1.67;67.98535;942.1672;;;;
2023/01/22 09:39:47;;;;;;;14.9;10.5;;;;;;;1.3;69.36621;942.1858;;;;
2023/01/22 09:42:12;;;;;;;15.6;11;;;;;;;1.36;69.91309;942.2017;;;;
2023/01/22 09:44:42;;;;;;;16;11.3;;;;;;;1.35;70.5166;942.2686;;;;
2023/01/22 09:47:11;;;;;;;15.3;10.7;;;;;;;1.65;70.03906;942.2831;;;;
2023/01/22 09:49:36;;;;;;;16.3;10.8;;;;;;;1.65;69.53516;942.2712;;;;
2023/01/22 09:52:01;;;;;;;15.7;11.5;;;;;;;1.95;69.40527;942.2885;;;;
2023/01/22 09:54:26;;;;;;;16.2;11.1;;;;;;;1.84;67.63281;942.2117;;;;
2023/01/22 09:56:51;;;;;;;15.9;10.9;;;;;;;1.68;69.9541;942.311;;;;
2023/01/22 09:59:16;;;;;;;14.9;10.8;;;;;;;2.03;68.03125;942.2917;;;;
2023/01/22 10:01:41;;;;;;;14.8;10.4;;;;;;;2.52;66.18262;942.2311;;;;
2023/01/22 10:04:07;;;;;;;15.1;10.5;;;;;;;2.73;65.11816;942.2473;;;;
2023/01/22 10:06:36;;;;;;;17.8;11.6;;;;;;;2.57;66.53711;942.267;;;;
2023/01/22 10:09:01;;;;;;;16;11.3;;;;;;;2.7;65.78418;942.2033;;;;
2023/01/22 10:11:27;;;;;;;14.1;10.4;;;;;;;2.59;65.91309;942.2089;;;;
2023/01/22 10:13:58;;;;;;;16.6;11.7;;;;;;;2.36;66.80566;942.2051;;;;
2023/01/22 10:16:27;;;;;;;18.5;13.1;;;;;;;2.03;67.29199;942.3072;;;;
2023/01/22 10:18:53;;;;;;;19.6;12.6;;;;;;;2.08;67.54688;942.2841;;;;
2023/01/22 10:21:18;;;;;;;18.4;12.8;;;;;;;2.06;67.93555;942.2539;;;;
2023/01/22 10:23:49;;;;;;;20.4;14.1;;;;;;;2.15;67.7373;942.2816;;;;
2023/01/22 10:26:23;;;;;;;24.2;15.8;;;;;;;1.65;68.85352;942.2721;;;;
2023/01/22 10:28:46;;;;;;;27.9;17.7;;;;;;;1.49;70.25977;942.2562;;;;
2023/01/22 10:31:12;;;;;;;24.2;16.4;;;;;;;1.56;70.1709;942.272;;;;
2023/01/22 10:33:37;;;;;;;15.8;11.1;;;;;;;1.6;70.04102;942.2449;;;;
2023/01/22 10:36:02;;;;;;;16.1;11;;;;;;;1.35;71.36523;942.2184;;;;
2023/01/22 10:38:29;;;;;;;16.6;11.7;;;;;;;1.49;70.74023;942.1869;;;;
2023/01/22 10:40:54;;;;;;;14.1;10.1;;;;;;;1.61;71.13965;942.1939;;;;
2023/01/22 10:43:20;;;;;;;11.3;8.6;;;;;;;1.7;70.25879;942.2294;;;;
2023/01/22 10:45:50;;;;;;;12;8.9;;;;;;;1.71;70.47461;942.2782;;;;
2023/01/22 10:48:21;;;;;;;13.9;9.2;;;;;;;1.86;69.21191;942.2581;;;;
2023/01/22 10:50:47;;;;;;;11.9;8.3;;;;;;;1.48;70.1123;942.2313;;;;
2023/01/22 10:53:16;;;;;;;11.2;8.6;;;;;;;1.67;69.94141;942.3139;;;;
2023/01/22 10:55:41;;;;;;;13.6;9.4;;;;;;;1.76;69.84375;942.2867;;;;
2023/01/22 10:58:11;;;;;;;11.5;8.6;;;;;;;1.66;69.43652;942.332;;;;
2023/01/22 11:00:36;;;;;;;12.6;8.4;;;;;;;1.5;69.67969;942.3588;;;;
2023/01/22 11:03:01;;;;;;;13.9;9.2;;;;;;;1.38;70.12793;942.3364;;;;
2023/01/22 11:05:29;;;;;;;13;9.4;;;;;;;1.32;70.86816;942.3414;;;;
2023/01/22 11:07:54;;;;;;;13;9.5;;;;;;;1.24;71.71289;942.4045;;;;
2023/01/22 11:13:44;;;;;;;13.5;9.4;;;;;;;1.03;72.4834;942.4792;;;;
2023/01/22 11:16:15;;;;;;;18.1;11.4;;;;;;;0.95;72.53613;942.4512;;;;
2023/01/22 11:18:38;;;;;;;21.3;13.5;;;;;;;0.93;72.94434;942.4651;;;;
2023/01/22 11:21:03;;;;;;;14.5;10.1;;;;;;;1.02;72.92871;942.4091;;;;
2023/01/22 11:23:31;;;;;;;12.5;9.2;;;;;;;1.22;72.26953;942.2902;;;;
2023/01/22 11:25:56;;;;;;;16.1;10.4;;;;;;;1.25;72.29688;942.2868;;;;
2023/01/22 11:28:21;;;;;;;13.7;9.5;;;;;;;1.29;72.10156;942.3296;;;;
2023/01/22 11:30:46;;;;;;;15.6;10.1;;;;;;;1.36;71.75684;942.3395;;;;
2023/01/22 11:33:16;;;;;;;14.5;10;;;;;;;1.37;71.22168;942.3265;;;;
2023/01/22 11:35:41;;;;;;;15.7;10.6;;;;;;;1.31;71.61523;942.2712;;;;
2023/01/22 11:38:07;;;;;;;15.7;10.7;;;;;;;1.45;71.69336;942.2424;;;;
2023/01/22 11:40:33;;;;;;;13.1;8.8;;;;;;;1.41;71.48633;942.2372;;;;
2023/01/22 11:42:59;;;;;;;12.5;9;;;;;;;1.36;71.91309;942.2224;;;;
2023/01/22 11:45:32;;;;;;;11.5;8.4;;;;;;;1.46;71.87402;942.2191;;;;
2023/01/22 11:48:01;;;;;;;11.1;8.4;;;;;;;1.57;71.5127;942.2034;;;;
2023/01/22 11:50:31;;;;;;;11.9;8.9;;;;;;;1.55;71.12891;942.1953;;;;
2023/01/22 11:52:56;;;;;;;12.6;8.8;;;;;;;1.62;71.7002;942.1946;;;;
2023/01/22 11:55:26;;;;;;;12.3;8.4;;;;;;;1.7;70.97461;942.1322;;;;
2023/01/22 11:57:53;;;;;;;10.7;8;;;;;;;1.64;70.74219;942.1476;;;;
2023/01/22 12:00:18;;;;;;;11.9;8.4;;;;;;;1.63;70.88574;942.2491;;;;
2023/01/22 12:02:46;;;;;;;11.2;8.1;;;;;;;1.73;70.49805;942.1839;;;;
2023/01/22 12:05:11;;;;;;;10;7.2;;;;;;;1.92;69.97168;942.1472;;;;
2023/01/22 12:07:36;;;;;;;10.5;7.5;;;;;;;1.73;69.8623;942.1803;;;;
2023/01/22 12:10:02;;;;;;;11.7;8;;;;;;;1.46;71.66211;942.2206;;;;
2023/01/22 12:12:27;;;;;;;12.6;8.8;;;;;;;1.65;70.89941;942.1716;;;;
2023/01/22 12:14:53;;;;;;;13.2;9.2;;;;;;;1.63;70.86133;942.1626;;;;
2023/01/22 12:17:22;;;;;;;11.7;8.7;;;;;;;1.75;70.35742;942.1559;;;;
2023/01/22 12:19:47;;;;;;;11.2;8.8;;;;;;;1.73;70.52246;942.1834;;;;
2023/01/22 12:22:12;;;;;;;12.7;9.5;;;;;;;1.74;70.56836;942.1859;;;;
2023/01/22 12:25:00;;;;;;;13.9;8.9;;;;;;;1.38;70.65332;942.2015;;;;
2023/01/22 12:27:25;;;;;;;12.9;9.2;;;;;;;1.45;71.59277;942.1906;;;;
2023/01/22 12:29:50;;;;;;;14.1;10.2;;;;;;;1.44;71.625;942.2079;;;;
2023/01/22 12:32:21;;;;;;;13.7;10.3;;;;;;;1.27;72.55664;942.1262;;;;
2023/01/22 12:34:45;;;;;;;12.6;9.3;;;;;;;1.32;72.6543;942.1947;;;;
2023/01/22 12:37:09;;;;;;;22.7;14.4;;;;;;;1.13;72.71094;942.2065;;;;
2023/01/22 12:39:40;;;;;;;18.8;12.5;;;;;;;1.23;72.90723;942.117;;;;
2023/01/22 12:42:47;;;;;;;15.8;10.5;;;;;;;1.21;73.18262;942.1602;;;;
2023/01/22 12:49:09;;;;;;;14.9;10.3;;;;;;;1.29;73.4873;942.2292;;;;
2023/01/22 12:51:37;;;;;;;22.2;15.6;;;;;;;1.23;73.31055;942.2224;;;;
2023/01/22 12:54:02;;;;;;;21;14.3;;;;;;;1.08;73.74219;942.2051;;;;
2023/01/22 12:56:27;;;;;;;17.2;11.9;;;;;;;1.15;73.28516;942.2267;;;;
2023/01/22 12:58:56;;;;;;;13.8;9.5;;;;;;;1.32;72.70996;942.1796;;;;
2023/01/22 13:01:21;;;;;;;13.3;9.9;;;;;;;1.2;71.4502;942.1459;;;;
2023/01/22 13:03:48;;;;;;;13.6;9.1;;;;;;;1.31;72.83301;942.2123;;;;
2023/01/22 13:06:13;;;;;;;14.6;9.8;;;;;;;1.57;71.69141;942.2184;;;;
2023/01/22 13:08:41;;;;;;;12.6;8.9;;;;;;;1.78;70.93262;942.2397;;;;
2023/01/22 13:11:06;;;;;;;13.3;9.7;;;;;;;1.68;70.66016;942.2195;;;;
2023/01/22 13:13:32;;;;;;;14.8;11.3;;;;;;;1.43;71.1543;942.1699;;;;
2023/01/22 13:15:57;;;;;;;13.2;10.1;;;;;;;1.53;71.46191;942.2156;;;;
2023/01/22 13:18:22;;;;;;;12.9;9.3;;;;;;;1.61;71.2627;942.2246;;;;
2023/01/22 13:20:47;;;;;;;14.3;9.9;;;;;;;1.5;71.00879;942.2352;;;;
2023/01/22 13:23:12;;;;;;;15.1;10.7;;;;;;;1.36;72.24805;942.2241;;;;
2023/01/22 13:25:38;;;;;;;13.4;9.8;;;;;;;1.29;72.67188;942.2951;;;;
2023/01/22 13:28:04;;;;;;;13.4;9.4;;;;;;;1.18;73.15625;942.2876;;;;
2023/01/22 13:30:29;;;;;;;15.3;10.2;;;;;;;1.15;73.375;942.2133;;;;
2023/01/22 13:32:56;;;;;;;13.2;9.5;;;;;;;1.04;73.72266;942.3769;;;;
2023/01/22 13:35:23;;;;;;;13.8;9.6;;;;;;;0.99;74.30859;942.4583;;;;
2023/01/22 13:37:49;;;;;;;12.7;9.1;;;;;;;0.94;74.57617;942.4545;;;;
2023/01/22 13:40:15;;;;;;;13.3;9.7;;;;;;;0.83;74.71387;942.4483;;;;
2023/01/22 13:42:41;;;;;;;13.4;9.8;;;;;;;0.76;74.95703;942.4772;;;;
2023/01/22 13:45:12;;;;;;;14.3;10.5;;;;;;;0.83;75.23828;942.4825;;;;
2023/01/22 13:47:37;;;;;;;14.1;9.8;;;;;;;0.96;74.5459;942.5396;;;;
2023/01/22 13:50:09;;;;;;;13.6;9.8;;;;;;;1.02;74.3916;942.5142;;;;
2023/01/22 13:52:38;;;;;;;13;8.9;;;;;;;0.9;74.13477;942.4966;;;;
2023/01/22 13:55:04;;;;;;;11.8;8.4;;;;;;;0.84;74.52539;942.5436;;;;
2023/01/22 13:57:28;;;;;;;11.6;8.6;;;;;;;0.69;74.35449;942.5283;;;;
2023/01/22 13:59:54;;;;;;;12.9;8.2;;;;;;;0.75;75.19141;942.6039;;;;
2023/01/22 14:02:19;;;;;;;12.1;8.7;;;;;;;0.86;75.07715;942.5784;;;;
2023/01/22 14:04:47;;;;;;;11;8.1;;;;;;;0.93;74.21777;942.5897;;;;
2023/01/22 14:07:16;;;;;;;10.8;8.1;;;;;;;0.8;74.20605;942.5558;;;;
2023/01/22 14:09:39;;;;;;;11.7;8.5;;;;;;;0.92;74.49609;942.5581;;;;
2023/01/22 14:12:05;;;;;;;12.6;8.5;;;;;;;1.04;74.09277;942.5808;;;;
2023/01/22 14:14:30;;;;;;;11.9;9;;;;;;;1.04;73.90137;942.5708;;;;
2023/01/22 14:16:57;;;;;;;12;8.6;;;;;;;1.04;73.72266;942.5927;;;;
2023/01/22 14:19:23;;;;;;;12.9;9.1;;;;;;;1.1;73.41113;942.6406;;;;
2023/01/22 14:21:49;;;;;;;12.4;8.9;;;;;;;1.19;73.53711;942.6639;;;;
2023/01/22 14:24:14;;;;;;;12.7;8.6;;;;;;;1.16;73.39844;942.6608;;;;
2023/01/22 14:26:42;;;;;;;13.4;9;;;;;;;1.2;73.31738;942.698;;;;
2023/01/22 14:29:08;;;;;;;11.2;8.3;;;;;;;1.2;73.12695;942.7048;;;;
2023/01/22 14:31:34;;;;;;;12.2;8.9;;;;;;;1.03;73.5332;942.7006;;;;
2023/01/22 14:34:00;;;;;;;11.9;8.7;;;;;;;0.86;74.33887;942.688;;;;
2023/01/22 14:36:27;;;;;;;13.6;9.3;;;;;;;0.87;74.64355;942.742;;;;
2023/01/22 14:38:56;;;;;;;13.5;9.7;;;;;;;0.93;74.96582;942.6934;;;;
2023/01/22 14:41:20;;;;;;;14.1;9.5;;;;;;;0.72;75.2207;942.7073;;;;
2023/01/22 14:43:51;;;;;;;13.9;9.5;;;;;;;0.63;75.53711;942.7636;;;;
2023/01/22 14:46:22;;;;;;;13.9;10;;;;;;;0.64;75.69629;942.7924;;;;
2023/01/22 14:48:48;;;;;;;14.3;9.9;;;;;;;0.63;76.16211;942.7808;;;;
2023/01/22 14:51:13;;;;;;;15.5;10.8;;;;;;;0.55;76.32715;942.8664;;;;
2023/01/22 14:53:43;;;;;;;15.3;10;;;;;;;0.56;76.49512;942.8234;;;;
2023/01/22 14:56:08;;;;;;;14.9;10.7;;;;;;;0.49;76.7627;942.8409;;;;
2023/01/22 14:58:35;;;;;;;13.7;9.9;;;;;;;0.34;76.93457;942.8746;;;;
2023/01/22 15:01:00;;;;;;;15.8;10.7;;;;;;;0.18;77.84277;942.9542;;;;
2023/01/22 15:03:25;;;;;;;13.7;10.3;;;;;;;0.17;78.25195;942.9778;;;;
2023/01/22 15:05:50;;;;;;;14.2;10.2;;;;;;;0.14;78.46973;942.9445;;;;
2023/01/22 15:08:16;;;;;;;14.9;10;;;;;;;0.15;78.60547;942.9667;;;;
2023/01/22 15:10:45;;;;;;;13.4;8.9;;;;;;;0.07;79.21582;943.0502;;;;
2023/01/22 15:14:33;;;;;;;14.9;10.1;;;;;;;0.15;78.80566;943.0316;;;;
2023/01/22 15:16:58;;;;;;;13.7;10.1;;;;;;;0.11;79.08887;943.0414;;;;
2023/01/22 15:19:29;;;;;;;15.2;10.7;;;;;;;-0.06;79.69141;943.0314;;;;
2023/01/22 15:21:58;;;;;;;16;10.9;;;;;;;-0.11;79.89258;943.0402;;;;
2023/01/22 15:24:24;;;;;;;15.4;11;;;;;;;-0.16;80.34082;943.0917;;;;
2023/01/22 15:26:52;;;;;;;17.8;11.2;;;;;;;-0.1;80.55371;943.1256;;;;
2023/01/22 15:29:17;;;;;;;17.2;11.7;;;;;;;-0.04;80.6084;943.1841;;;;
2023/01/22 15:31:48;;;;;;;16.6;11.4;;;;;;;-0.17;80.94043;943.1983;;;;
2023/01/22 15:34:18;;;;;;;16.8;11.1;;;;;;;-0.25;80.8584;943.116;;;;
2023/01/22 15:36:52;;;;;;;17.8;11.9;;;;;;;-0.32;81.60156;943.157;;;;
2023/01/22 15:39:23;;;;;;;16.9;11.2;;;;;;;-0.28;81.83301;943.2556;;;;
2023/01/22 15:41:56;;;;;;;17.7;11.7;;;;;;;-0.27;81.94531;943.2619;;;;